createdAt,value
2022-08-11T00:00:18.437Z,17.28
2022-08-11T00:03:26.564Z,17.26
2022-08-11T00:08:53.420Z,17.18
2022-08-11T00:11:21.548Z,17.16
2022-08-11T00:14:17.554Z,17.14
2022-08-11T00:18:07.125Z,17.12
2022-08-11T00:20:39.397Z,17.09
2022-08-11T00:23:08.116Z,17.06
2022-08-11T00:25:51.259Z,17.03
2022-08-11T00:28:36.619Z,17.00
2022-08-11T00:31:34.262Z,16.96
2022-08-11T00:34:12.365Z,16.90
2022-08-11T00:36:52.848Z,16.85
2022-08-11T00:39:36.160Z,16.82
2022-08-11T00:42:18.497Z,16.77
2022-08-11T00:45:05.474Z,16.74
2022-08-11T00:48:03.486Z,16.71
2022-08-11T00:50:58.857Z,16.71
2022-08-11T00:53:49.018Z,16.71
2022-08-11T00:56:49.574Z,16.71
2022-08-11T00:59:37.706Z,16.71
2022-08-11T01:02:23.417Z,16.72
2022-08-11T01:05:35.778Z,16.73
2022-08-11T01:08:24.481Z,16.78
2022-08-11T01:11:02.114Z,16.82
2022-08-11T01:13:36.947Z,16.83
2022-08-11T01:16:23.674Z,16.85
2022-08-11T01:18:55.116Z,16.84
2022-08-11T01:21:40.838Z,16.83
2022-08-11T01:24:22.478Z,16.80
2022-08-11T01:27:19.388Z,16.81
2022-08-11T01:30:05.435Z,16.81
2022-08-11T01:32:47.899Z,16.79
2022-08-11T01:35:31.482Z,16.76
2022-08-11T01:38:20.803Z,16.74
2022-08-11T01:40:59.019Z,16.70
2022-08-11T01:43:57.284Z,16.64
2022-08-11T01:46:54.244Z,16.59
2022-08-11T01:50:09.862Z,16.54
2022-08-11T01:53:03.201Z,16.50
2022-08-11T01:55:39.634Z,16.42
2022-08-11T01:58:43.507Z,16.37
2022-08-11T02:01:17.151Z,16.31
2022-08-11T02:04:06.124Z,16.23
2022-08-11T02:07:03.382Z,16.16
2022-08-11T02:09:51.968Z,16.12
2022-08-11T02:12:43.792Z,16.08
2022-08-11T02:15:35.115Z,16.05
2022-08-11T02:18:07.598Z,16.04
2022-08-11T02:21:11.687Z,16.00
2022-08-11T02:24:05.449Z,15.97
2022-08-11T02:27:05.200Z,15.97
2022-08-11T02:29:34.155Z,15.95
2022-08-11T02:32:32.368Z,15.93
2022-08-11T02:35:14.087Z,15.92
2022-08-11T02:38:11.076Z,15.88
2022-08-11T02:41:00.886Z,15.82
2022-08-11T02:43:27.925Z,15.76
2022-08-11T02:46:06.467Z,15.71
2022-08-11T02:49:14.702Z,15.66
2022-08-11T02:51:55.093Z,15.61
2022-08-11T02:54:22.692Z,15.57
2022-08-11T02:56:51.752Z,15.53
2022-08-11T02:59:49.726Z,15.51
2022-08-11T03:02:28.974Z,15.50
2022-08-11T03:05:07.079Z,15.50
2022-08-11T03:08:04.849Z,15.49
2022-08-11T03:11:10.955Z,15.49
2022-08-11T03:14:16.159Z,15.50
2022-08-11T03:16:50.251Z,15.54
2022-08-11T03:19:37.376Z,15.57
2022-08-11T03:22:47.961Z,15.65
2022-08-11T03:25:56.424Z,15.73
2022-08-11T03:28:29.667Z,15.79
2022-08-11T03:31:08.388Z,15.85
2022-08-11T03:37:56.018Z,15.95
2022-08-11T03:41:00.987Z,15.94
2022-08-11T03:43:58.090Z,15.92
2022-08-11T03:46:44.882Z,15.91
2022-08-11T03:49:23.185Z,15.90
2022-08-11T03:51:54.868Z,15.92
2022-08-11T03:54:33.053Z,15.95
2022-08-11T03:57:25.865Z,15.96
2022-08-11T03:59:58.982Z,16.00
2022-08-11T04:02:34.983Z,16.09
2022-08-11T04:05:23.755Z,16.09
2022-08-11T04:08:12.033Z,16.27
2022-08-11T04:10:49.799Z,16.78
2022-08-11T04:13:49.576Z,17.67
2022-08-11T04:16:50.342Z,18.56
2022-08-11T04:19:53.317Z,19.46
2022-08-11T04:22:42.023Z,20.25
2022-08-11T04:25:34.663Z,20.63
2022-08-11T04:28:28.909Z,21.14
2022-08-11T04:31:50.755Z,21.73
2022-08-11T04:34:39.192Z,22.31
2022-08-11T04:37:34.818Z,22.68
2022-08-11T04:40:23.740Z,22.86
2022-08-11T04:43:28.226Z,22.56
2022-08-11T04:47:02.827Z,22.31
2022-08-11T04:53:28.434Z,22.32
2022-08-11T05:00:33.042Z,22.85
2022-08-11T05:03:21.691Z,22.95
2022-08-11T05:06:01.117Z,22.91
2022-08-11T05:09:31.418Z,22.77
2022-08-11T05:12:32.716Z,22.61
2022-08-11T05:18:31.154Z,23.24
2022-08-11T05:21:44.796Z,23.67
2022-08-11T05:24:47.382Z,23.86
2022-08-11T05:27:41.304Z,23.84
2022-08-11T05:30:46.182Z,23.82
2022-08-11T05:34:07.536Z,23.66
2022-08-11T05:36:52.234Z,23.55
2022-08-11T05:39:48.393Z,23.61
2022-08-11T05:42:43.878Z,23.73
2022-08-11T05:45:54.833Z,23.83
2022-08-11T05:48:54.951Z,23.73
2022-08-11T06:07:15.833Z,23.76
2022-08-11T06:10:10.749Z,23.88
2022-08-11T06:12:52.057Z,24.03
2022-08-11T06:15:22.255Z,24.02
2022-08-11T06:18:05.281Z,23.76
2022-08-11T06:20:45.773Z,23.28
2022-08-11T06:23:18.192Z,22.79
2022-08-11T06:25:56.942Z,22.37
2022-08-11T06:28:38.052Z,22.06
2022-08-11T06:31:12.055Z,21.92
2022-08-11T06:34:04.333Z,21.80
2022-08-11T06:36:44.253Z,21.72
2022-08-11T06:39:45.670Z,21.65
2022-08-11T06:42:31.360Z,21.54
2022-08-11T06:45:10.981Z,21.50
2022-08-11T06:47:42.247Z,21.50
2022-08-11T06:50:29.496Z,21.53
2022-08-11T06:52:59.376Z,21.55
2022-08-11T06:55:56.697Z,21.58
2022-08-11T06:58:52.278Z,21.64
2022-08-11T07:01:48.554Z,21.71
2022-08-11T07:04:28.417Z,21.76
2022-08-11T07:07:40.611Z,21.84
2022-08-11T07:10:37.192Z,21.90
2022-08-11T07:13:39.376Z,21.98
2022-08-11T07:16:24.326Z,22.04
2022-08-11T07:19:32.730Z,22.08
2022-08-11T07:22:37.052Z,22.15
2022-08-11T07:25:34.235Z,22.20
2022-08-11T07:28:38.413Z,22.24
2022-08-11T07:34:25.026Z,22.40
2022-08-11T07:37:00.351Z,22.45
2022-08-11T07:39:47.486Z,22.49
2022-08-11T07:42:19.927Z,22.59
2022-08-11T07:45:07.459Z,22.67
2022-08-11T07:48:01.640Z,22.80
2022-08-11T07:53:31.253Z,22.98
2022-08-11T07:55:59.508Z,23.04
2022-08-11T07:58:55.046Z,23.09
2022-08-11T08:01:44.003Z,23.13
2022-08-11T08:04:35.829Z,23.13
2022-08-11T08:07:24.200Z,23.22
2022-08-11T08:10:09.923Z,23.31
2022-08-11T08:13:00.299Z,23.39
2022-08-11T08:15:46.081Z,23.44
2022-08-11T08:18:25.949Z,23.49
2022-08-11T08:20:54.897Z,23.55
2022-08-11T08:23:35.153Z,23.59
2022-08-11T08:26:03.783Z,23.66
2022-08-11T08:28:32.748Z,23.65
2022-08-11T08:31:00.140Z,23.72
2022-08-11T08:33:30.469Z,23.84
2022-08-11T08:36:15.778Z,23.85
2022-08-11T08:38:48.956Z,23.87
2022-08-11T08:41:24.376Z,23.95
2022-08-11T08:43:53.407Z,24.04
2022-08-11T08:46:40.545Z,24.03
2022-08-11T08:49:09.286Z,24.07
2022-08-11T08:52:01.405Z,24.09
2022-08-11T08:54:28.579Z,24.14
2022-08-11T08:56:56.075Z,24.19
2022-08-11T08:59:25.712Z,24.19
2022-08-11T09:02:01.532Z,24.23
2022-08-11T09:04:29.502Z,24.24
2022-08-11T09:07:02.939Z,24.17
2022-08-11T09:09:35.028Z,24.21
2022-08-11T09:12:08.097Z,24.30
2022-08-11T09:14:59.610Z,24.36
2022-08-11T09:17:45.454Z,24.38
2022-08-11T09:20:22.138Z,24.44
2022-08-11T09:26:20.691Z,24.50
2022-08-11T09:28:49.573Z,24.51
2022-08-11T09:31:16.325Z,24.59
2022-08-11T09:33:46.051Z,24.66
2022-08-11T09:36:32.494Z,24.72
2022-08-11T09:39:25.137Z,24.78
2022-08-11T09:42:00.582Z,24.86
2022-08-11T09:44:51.169Z,24.91
2022-08-11T09:47:25.005Z,24.84
2022-08-11T09:49:55.871Z,24.88
2022-08-11T09:52:29.425Z,25.00
2022-08-11T09:54:59.646Z,24.99
2022-08-11T09:57:45.517Z,25.01
2022-08-11T10:00:14.575Z,25.06
2022-08-11T10:02:54.183Z,25.09
2022-08-11T10:05:43.430Z,25.23
2022-08-11T10:08:12.470Z,25.31
2022-08-11T10:10:48.258Z,25.40
2022-08-11T10:14:31.647Z,25.49
2022-08-11T10:16:15.534Z,25.65
2022-08-11T10:18:56.146Z,25.67
2022-08-11T10:21:33.974Z,25.47
2022-08-11T10:24:19.550Z,25.23
2022-08-11T10:26:54.239Z,25.08
2022-08-11T10:29:45.265Z,25.18
2022-08-11T10:32:57.910Z,25.38
2022-08-11T10:35:28.591Z,25.51
2022-08-11T10:38:06.518Z,25.54
2022-08-11T10:40:39.306Z,25.71
2022-08-11T10:43:10.160Z,25.88
2022-08-11T10:45:56.186Z,25.99
2022-08-11T10:48:24.591Z,26.11
2022-08-11T10:51:10.175Z,26.22
2022-08-11T10:54:02.745Z,26.28
2022-08-11T10:57:07.645Z,26.32
2022-08-11T10:59:37.826Z,26.41
2022-08-11T11:02:09.031Z,26.37
2022-08-11T11:04:38.755Z,26.31
2022-08-11T11:07:13.359Z,26.28
2022-08-11T11:09:50.712Z,26.36
2022-08-11T11:12:42.478Z,26.42
2022-08-11T11:15:29.160Z,26.50
2022-08-11T11:18:01.045Z,26.61
2022-08-11T11:20:34.463Z,26.58
2022-08-11T11:23:13.479Z,26.59
2022-08-11T11:26:14.956Z,26.66
2022-08-11T11:29:00.327Z,26.70
2022-08-11T11:31:26.728Z,26.81
2022-08-11T11:34:13.491Z,26.82
2022-08-11T11:36:52.257Z,26.89
2022-08-11T11:39:21.594Z,27.08
2022-08-11T11:41:52.602Z,27.21
2022-08-11T11:44:19.954Z,27.25
2022-08-11T11:46:47.010Z,27.33
2022-08-11T11:49:17.121Z,27.40
2022-08-11T11:51:49.916Z,27.45
2022-08-11T11:54:28.052Z,27.45
2022-08-11T11:56:55.824Z,27.46
2022-08-11T11:59:43.053Z,27.51
2022-08-11T12:02:12.708Z,27.60
2022-08-11T12:04:43.865Z,27.70
2022-08-11T12:07:30.090Z,27.74
2022-08-11T12:09:57.987Z,27.65
2022-08-11T12:12:44.331Z,27.70
2022-08-11T12:15:11.767Z,27.76
2022-08-11T12:17:39.097Z,27.75
2022-08-11T12:20:07.081Z,27.78
2022-08-11T12:23:14.705Z,27.87
2022-08-11T12:26:27.240Z,27.92
2022-08-11T12:29:00.567Z,28.02
2022-08-11T12:31:30.715Z,28.06
2022-08-11T12:34:01.836Z,27.84
2022-08-11T12:36:29.159Z,27.67
2022-08-11T12:38:55.923Z,27.72
2022-08-11T12:41:41.387Z,27.71
2022-08-11T12:44:29.128Z,27.77
2022-08-11T12:46:59.148Z,27.80
2022-08-11T12:49:46.269Z,27.85
2022-08-11T12:52:17.153Z,27.75
2022-08-11T12:54:53.779Z,27.65
2022-08-11T12:57:44.613Z,27.43
2022-08-11T13:00:30.586Z,27.46
2022-08-11T13:03:17.499Z,27.60
2022-08-11T13:05:46.383Z,27.56
2022-08-11T13:08:16.966Z,27.59
2022-08-11T13:11:03.312Z,27.72
2022-08-11T13:13:55.406Z,27.92
2022-08-11T13:16:31.071Z,28.04
2022-08-11T13:19:00.287Z,28.12
2022-08-11T13:21:27.861Z,28.11
2022-08-11T13:23:59.640Z,28.14
2022-08-11T13:26:43.383Z,28.00
2022-08-11T13:29:21.789Z,27.99
2022-08-11T13:31:49.401Z,27.96
2022-08-11T13:34:17.656Z,27.60
2022-08-11T13:36:45.260Z,27.41
2022-08-11T13:39:13.575Z,27.20
2022-08-11T13:41:43.373Z,27.07
2022-08-11T13:44:12.641Z,27.05
2022-08-11T13:46:45.684Z,27.11
2022-08-11T13:49:15.487Z,27.26
2022-08-11T13:51:42.928Z,27.45
2022-08-11T13:54:10.643Z,27.55
2022-08-11T13:56:41.358Z,27.48
2022-08-11T13:59:10.833Z,27.37
2022-08-11T14:02:19.407Z,27.25
2022-08-11T14:04:44.268Z,27.12
2022-08-11T14:07:14.060Z,26.99
2022-08-11T14:09:42.988Z,26.85
2022-08-11T14:12:32.582Z,26.75
2022-08-11T14:15:08.086Z,26.67
2022-08-11T14:17:48.987Z,26.62
2022-08-11T14:20:38.420Z,26.59
2022-08-11T14:23:04.825Z,26.62
2022-08-11T14:26:00.564Z,26.67
2022-08-11T14:28:31.903Z,26.74
2022-08-11T14:31:04.609Z,26.77
2022-08-11T14:34:00.751Z,26.80
2022-08-11T14:36:20.063Z,26.84
2022-08-11T14:38:49.866Z,27.00
2022-08-11T14:41:36.196Z,27.27
2022-08-11T14:44:24.122Z,27.49
2022-08-11T14:47:23.209Z,27.65
2022-08-11T14:50:09.312Z,27.69
2022-08-11T14:52:44.110Z,27.58
2022-08-11T14:55:29.910Z,27.40
2022-08-11T14:57:57.303Z,27.18
2022-08-11T15:00:24.796Z,27.00
2022-08-11T15:03:09.563Z,26.89
2022-08-11T15:05:58.340Z,26.81
2022-08-11T15:08:45.539Z,26.82
2022-08-11T15:11:31.331Z,26.90
2022-08-11T15:13:59.458Z,26.88
2022-08-11T15:16:45.331Z,26.84
2022-08-11T15:19:12.623Z,26.73
2022-08-11T15:21:57.598Z,26.64
2022-08-11T15:24:24.500Z,26.55
2022-08-11T15:27:13.136Z,26.47
2022-08-11T15:29:59.448Z,26.41
2022-08-11T15:32:45.889Z,26.38
2022-08-11T15:35:33.778Z,26.34
2022-08-11T15:38:11.055Z,26.31
2022-08-11T15:40:57.925Z,26.29
2022-08-11T15:43:45.782Z,26.30
2022-08-11T15:46:32.492Z,26.31
2022-08-11T15:49:01.905Z,26.33
2022-08-11T15:51:28.275Z,26.35
2022-08-11T15:53:57.774Z,26.37
2022-08-11T15:56:25.377Z,26.38
2022-08-11T15:59:42.948Z,26.40
2022-08-11T16:02:18.539Z,26.39
2022-08-11T16:04:45.915Z,26.37
2022-08-11T16:07:16.686Z,26.35
2022-08-11T16:10:01.196Z,26.34
2022-08-11T16:12:32.398Z,26.32
2022-08-11T16:15:20.348Z,26.28
2022-08-11T16:17:49.777Z,26.21
2022-08-11T16:20:18.861Z,26.16
2022-08-11T16:23:01.513Z,26.12
2022-08-11T16:27:02.079Z,26.08
2022-08-11T16:28:20.037Z,26.04
2022-08-11T16:30:47.101Z,25.99
2022-08-11T16:33:48.447Z,25.94
2022-08-11T16:36:21.312Z,25.88
2022-08-11T16:38:48.887Z,25.85
2022-08-11T16:41:36.616Z,25.82
2022-08-11T16:44:36.864Z,25.78
2022-08-11T16:47:11.352Z,25.77
2022-08-11T16:49:42.396Z,25.78
2022-08-11T16:52:12.307Z,25.80
2022-08-11T16:54:40.775Z,25.78
2022-08-11T16:57:43.488Z,25.72
2022-08-11T17:00:12.557Z,25.65
2022-08-11T17:03:03.293Z,25.57
2022-08-11T17:05:53.825Z,25.48
2022-08-11T17:08:57.913Z,25.38
2022-08-11T17:11:48.913Z,25.28
2022-08-11T17:14:35.840Z,25.20
2022-08-11T17:17:10.741Z,25.10
2022-08-11T17:20:42.820Z,25.02
2022-08-11T17:22:47.624Z,24.94
2022-08-11T17:25:15.471Z,24.85
2022-08-11T17:27:42.782Z,24.78
2022-08-11T17:30:10.212Z,24.72
2022-08-11T17:33:00.835Z,24.65
2022-08-11T17:35:32.838Z,24.56
2022-08-11T17:37:59.842Z,24.49
2022-08-11T17:40:27.871Z,24.42
2022-08-11T17:43:14.386Z,24.36
2022-08-11T17:46:00.838Z,24.29
2022-08-11T17:48:31.983Z,24.21
2022-08-11T17:51:03.976Z,24.14
2022-08-11T17:54:15.982Z,24.07
2022-08-11T17:57:20.481Z,23.99
2022-08-11T17:59:52.281Z,23.92
2022-08-11T18:02:39.507Z,23.85
2022-08-11T18:05:10.834Z,23.78
2022-08-11T18:08:01.805Z,23.73
2022-08-11T18:10:48.079Z,23.69
2022-08-11T18:13:35.025Z,23.64
2022-08-11T18:16:22.029Z,23.59
2022-08-11T18:19:06.841Z,23.54
2022-08-11T18:22:14.176Z,23.47
2022-08-11T18:25:08.346Z,23.37
2022-08-11T18:27:59.775Z,23.29
2022-08-11T18:30:45.997Z,23.21
2022-08-11T18:34:03.995Z,23.14
2022-08-11T18:36:39.816Z,23.06
2022-08-11T18:39:27.681Z,22.99
2022-08-11T18:42:14.289Z,22.93
2022-08-11T18:45:05.669Z,22.86
2022-08-11T18:47:51.038Z,22.80
2022-08-11T18:50:41.260Z,22.74
2022-08-11T18:53:32.387Z,22.67
2022-08-11T18:56:20.416Z,22.60
2022-08-11T18:59:06.305Z,22.53
2022-08-11T19:01:54.537Z,22.48
2022-08-11T19:04:40.976Z,22.42
2022-08-11T19:07:26.895Z,22.36
2022-08-11T19:10:13.385Z,22.30
2022-08-11T19:13:00.718Z,22.25
2022-08-11T19:15:46.903Z,22.22
2022-08-11T19:18:40.065Z,22.18
2022-08-11T19:21:26.748Z,22.13
2022-08-11T19:24:14.321Z,22.06
2022-08-11T19:27:00.508Z,22.01
2022-08-11T19:30:04.804Z,21.96
2022-08-11T19:32:52.438Z,21.94
2022-08-11T19:35:37.785Z,21.94
2022-08-11T19:38:23.696Z,21.92
2022-08-11T19:41:10.148Z,21.88
2022-08-11T19:43:57.969Z,21.83
2022-08-11T19:46:55.856Z,21.76
2022-08-11T19:49:51.323Z,21.67
2022-08-11T19:52:36.929Z,21.58
2022-08-11T19:55:23.681Z,21.51
2022-08-11T19:58:08.843Z,21.46
2022-08-11T20:00:54.087Z,21.41
2022-08-11T20:03:40.024Z,21.37
2022-08-11T20:06:26.297Z,21.31
2022-08-11T20:09:14.065Z,21.25
2022-08-11T20:12:01.248Z,21.17
2022-08-11T20:14:50.052Z,21.10
2022-08-11T20:17:36.400Z,21.01
2022-08-11T20:20:24.088Z,20.94
2022-08-11T20:23:13.341Z,20.87
2022-08-11T20:26:27.668Z,20.80
2022-08-11T20:29:26.774Z,20.73
2022-08-11T20:32:19.541Z,20.66
2022-08-11T20:35:49.903Z,20.61
2022-08-11T20:39:11.674Z,20.52
2022-08-11T20:42:12.039Z,20.44
2022-08-11T20:45:06.846Z,20.37
2022-08-11T20:48:14.842Z,20.30
2022-08-11T20:51:10.145Z,20.25
2022-08-11T20:54:38.417Z,20.20
2022-08-11T20:58:25.514Z,20.15
2022-08-11T21:01:24.258Z,20.12
2022-08-11T21:04:34.279Z,20.08
2022-08-11T21:07:55.467Z,20.04
2022-08-11T21:14:09.869Z,20.04
2022-08-11T21:16:56.635Z,20.04
2022-08-11T21:19:59.752Z,20.04
2022-08-11T21:22:59.158Z,20.04
2022-08-11T21:26:11.407Z,20.02
2022-08-11T21:28:57.884Z,20.01
2022-08-11T21:31:43.779Z,19.99
2022-08-11T21:34:34.552Z,19.99
2022-08-11T21:37:20.079Z,19.98
2022-08-11T21:40:06.808Z,19.96
2022-08-11T21:42:54.823Z,19.93
2022-08-11T21:45:40.617Z,19.90
2022-08-11T21:48:29.697Z,19.87
2022-08-11T21:51:14.972Z,19.84
2022-08-11T21:54:00.371Z,19.81
2022-08-11T21:56:45.510Z,19.77
2022-08-11T21:59:34.648Z,19.73
2022-08-11T22:02:19.840Z,19.68
2022-08-11T22:05:05.722Z,19.63
2022-08-11T22:07:51.688Z,19.59
2022-08-11T22:10:41.855Z,19.57
2022-08-11T22:13:30.577Z,19.56
2022-08-11T22:16:16.673Z,19.54
2022-08-11T22:19:02.563Z,19.52
2022-08-11T22:22:03.277Z,19.50
2022-08-11T22:24:50.546Z,19.48
2022-08-11T22:27:36.035Z,19.44
2022-08-11T22:30:21.047Z,19.39
2022-08-11T22:33:07.674Z,19.35
2022-08-11T22:35:53.441Z,19.31
2022-08-11T22:38:38.621Z,19.28
2022-08-11T22:41:25.253Z,19.25
2022-08-11T22:44:13.027Z,19.22
2022-08-11T22:47:00.283Z,19.20
2022-08-11T22:49:57.420Z,19.19
2022-08-11T22:52:44.759Z,19.16
2022-08-11T22:55:39.672Z,19.11
2022-08-11T22:58:24.868Z,19.07
2022-08-11T23:01:10.373Z,19.02
2022-08-11T23:03:55.652Z,18.99
2022-08-11T23:06:41.540Z,18.93
2022-08-11T23:09:27.642Z,18.90
2022-08-11T23:12:13.750Z,18.87
2022-08-11T23:15:01.724Z,18.83
2022-08-11T23:18:00.869Z,18.79
2022-08-11T23:20:58.508Z,18.75
2022-08-11T23:23:46.913Z,18.70
2022-08-11T23:26:32.725Z,18.66
2022-08-11T23:29:18.244Z,18.61
2022-08-11T23:32:04.008Z,18.54
2022-08-11T23:35:04.738Z,18.45
2022-08-11T23:37:59.762Z,18.33
2022-08-11T23:40:45.584Z,18.26
2022-08-11T23:43:37.969Z,18.20
2022-08-11T23:46:24.230Z,18.14
2022-08-11T23:49:11.879Z,18.10
2022-08-11T23:51:58.031Z,18.04
2022-08-11T23:54:55.868Z,17.99
2022-08-11T23:57:47.682Z,17.93
